sensor_id;sensor_type;location;lat;lon;timestamp;pressure;altitude;pressure_sealevel;temperature;humidity
10958;BME280;5531;42.570;23.676;2022-09-16T00:01:35;91677.94;;;23.17;46.18
10958;BME280;5531;42.570;23.676;2022-09-16T00:04:03;91671.34;;;23.10;46.54
10958;BME280;5531;42.570;23.676;2022-09-16T00:06:32;91678.06;;;23.02;46.17
10958;BME280;5531;42.570;23.676;2022-09-16T00:09:04;91683.19;;;22.98;46.28
10958;BME280;5531;42.570;23.676;2022-09-16T00:11:33;91685.03;;;22.98;46.34
10958;BME280;5531;42.570;23.676;2022-09-16T00:14:02;91685.03;;;22.98;46.98
10958;BME280;5531;42.570;23.676;2022-09-16T00:16:32;91688.84;;;22.92;47.33
10958;BME280;5531;42.570;23.676;2022-09-16T00:19:01;91679.28;;;22.85;48.02
10958;BME280;5531;42.570;23.676;2022-09-16T00:21:30;91683.84;;;22.85;47.53
10958;BME280;5531;42.570;23.676;2022-09-16T00:23:59;91681.44;;;22.83;46.21
10958;BME280;5531;42.570;23.676;2022-09-16T00:26:31;91687.56;;;22.84;46.81
10958;BME280;5531;42.570;23.676;2022-09-16T00:29:00;91690.56;;;22.77;46.92
10958;BME280;5531;42.570;23.676;2022-09-16T00:31:30;91672.78;;;22.62;47.58
10958;BME280;5531;42.570;23.676;2022-09-16T00:33:59;91667.91;;;22.69;46.38
10958;BME280;5531;42.570;23.676;2022-09-16T00:36:28;91666.28;;;22.74;45.81
10958;BME280;5531;42.570;23.676;2022-09-16T00:38:57;91693.59;;;22.65;46.47
10958;BME280;5531;42.570;23.676;2022-09-16T00:41:28;91686.97;;;22.58;48.09
10958;BME280;5531;42.570;23.676;2022-09-16T00:44:02;91687.84;;;22.48;48.06
10958;BME280;5531;42.570;23.676;2022-09-16T00:46:35;91679.78;;;22.53;47.73
10958;BME280;5531;42.570;23.676;2022-09-16T00:49:10;91673.97;;;22.46;48.11
10958;BME280;5531;42.570;23.676;2022-09-16T00:51:41;91678.53;;;22.40;47.59
10958;BME280;5531;42.570;23.676;2022-09-16T00:54:12;91677.75;;;22.40;47.89
10958;BME280;5531;42.570;23.676;2022-09-16T00:56:44;91670.81;;;22.39;46.91
10958;BME280;5531;42.570;23.676;2022-09-16T00:59:19;91678.81;;;22.39;47.84
10958;BME280;5531;42.570;23.676;2022-09-16T01:01:50;91680.19;;;22.36;48.42
10958;BME280;5531;42.570;23.676;2022-09-16T01:04:22;91679.88;;;22.43;47.24
10958;BME280;5531;42.570;23.676;2022-09-16T01:06:53;91671.78;;;22.53;45.85
10958;BME280;5531;42.570;23.676;2022-09-16T01:09:22;91679.56;;;22.49;46.62
10958;BME280;5531;42.570;23.676;2022-09-16T01:11:52;91678.38;;;22.66;45.86
10958;BME280;5531;42.570;23.676;2022-09-16T01:14:25;91698.91;;;22.70;46.57
10958;BME280;5531;42.570;23.676;2022-09-16T01:17:20;91695.41;;;22.70;45.94
10958;BME280;5531;42.570;23.676;2022-09-16T01:23:12;91690.06;;;22.70;45.10
10958;BME280;5531;42.570;23.676;2022-09-16T01:25:58;91691.69;;;22.71;45.63
10958;BME280;5531;42.570;23.676;2022-09-16T01:31:33;91697.78;;;22.77;47.00
10958;BME280;5531;42.570;23.676;2022-09-16T01:34:14;91689.78;;;22.72;44.74
10958;BME280;5531;42.570;23.676;2022-09-16T01:36:52;91701.25;;;22.77;45.14
10958;BME280;5531;42.570;23.676;2022-09-16T01:39:32;91714.31;;;22.79;45.73
10958;BME280;5531;42.570;23.676;2022-09-16T01:42:14;91711.38;;;22.80;47.18
10958;BME280;5531;42.570;23.676;2022-09-16T01:44:52;91708.97;;;22.79;47.43
10958;BME280;5531;42.570;23.676;2022-09-16T01:47:32;91699.69;;;22.71;48.43
10958;BME280;5531;42.570;23.676;2022-09-16T01:50:07;91701.84;;;22.69;47.98
10958;BME280;5531;42.570;23.676;2022-09-16T01:52:45;91697.59;;;22.63;48.42
10958;BME280;5531;42.570;23.676;2022-09-16T01:55:21;91687.53;;;22.55;49.27
10958;BME280;5531;42.570;23.676;2022-09-16T01:57:55;91693.97;;;22.48;49.53
10958;BME280;5531;42.570;23.676;2022-09-16T02:00:26;91696.94;;;22.42;49.79
10958;BME280;5531;42.570;23.676;2022-09-16T02:03:01;91684.97;;;22.34;50.43
10958;BME280;5531;42.570;23.676;2022-09-16T02:05:35;91686.34;;;22.26;50.37
10958;BME280;5531;42.570;23.676;2022-09-16T02:08:11;91689.00;;;22.31;49.53
10958;BME280;5531;42.570;23.676;2022-09-16T02:10:43;91697.00;;;22.31;48.42
10958;BME280;5531;42.570;23.676;2022-09-16T02:13:18;91686.53;;;22.40;47.93
10958;BME280;5531;42.570;23.676;2022-09-16T02:15:50;91669.78;;;22.35;46.87
10958;BME280;5531;42.570;23.676;2022-09-16T02:18:28;91679.56;;;22.49;46.50
10958;BME280;5531;42.570;23.676;2022-09-16T02:21:00;91659.22;;;22.54;48.17
10958;BME280;5531;42.570;23.676;2022-09-16T02:23:33;91675.72;;;22.61;47.00
10958;BME280;5531;42.570;23.676;2022-09-16T02:26:06;91645.00;;;22.63;47.72
10958;BME280;5531;42.570;23.676;2022-09-16T02:28:40;91646.59;;;22.64;48.28
10958;BME280;5531;42.570;23.676;2022-09-16T02:31:11;91639.38;;;22.65;48.63
10958;BME280;5531;42.570;23.676;2022-09-16T02:33:46;91653.25;;;22.67;48.10
10958;BME280;5531;42.570;23.676;2022-09-16T02:36:20;91664.72;;;22.33;50.00
10958;BME280;5531;42.570;23.676;2022-09-16T02:38:53;91665.19;;;22.40;49.87
10958;BME280;5531;42.570;23.676;2022-09-16T02:41:24;91676.69;;;22.36;50.20
10958;BME280;5531;42.570;23.676;2022-09-16T02:43:53;91686.31;;;22.37;50.16
10958;BME280;5531;42.570;23.676;2022-09-16T02:46:28;91697.84;;;22.22;50.16
10958;BME280;5531;42.570;23.676;2022-09-16T02:49:10;91682.34;;;22.29;50.64
10958;BME280;5531;42.570;23.676;2022-09-16T02:51:45;91667.94;;;22.25;50.35
10958;BME280;5531;42.570;23.676;2022-09-16T02:54:24;91666.66;;;22.12;50.65
10958;BME280;5531;42.570;23.676;2022-09-16T02:56:56;91672.75;;;22.18;49.47
10958;BME280;5531;42.570;23.676;2022-09-16T02:59:25;91671.75;;;22.13;50.40
10958;BME280;5531;42.570;23.676;2022-09-16T03:01:54;91663.97;;;22.17;50.88
10958;BME280;5531;42.570;23.676;2022-09-16T03:04:27;91668.53;;;22.11;50.53
10958;BME280;5531;42.570;23.676;2022-09-16T03:06:57;91658.13;;;22.15;50.16
10958;BME280;5531;42.570;23.676;2022-09-16T03:09:26;91657.84;;;22.17;49.79
10958;BME280;5531;42.570;23.676;2022-09-16T03:12:14;91673.38;;;22.04;50.34
10958;BME280;5531;42.570;23.676;2022-09-16T03:14:56;91663.25;;;22.01;50.38
10958;BME280;5531;42.570;23.676;2022-09-16T03:17:41;91649.34;;;22.09;50.33
10958;BME280;5531;42.570;23.676;2022-09-16T03:20:22;91672.03;;;22.02;50.86
10958;BME280;5531;42.570;23.676;2022-09-16T03:23:03;91662.75;;;21.94;50.15
10958;BME280;5531;42.570;23.676;2022-09-16T03:25:43;91662.47;;;22.01;49.86
10958;BME280;5531;42.570;23.676;2022-09-16T03:28:16;91660.31;;;22.03;50.18
10958;BME280;5531;42.570;23.676;2022-09-16T03:30:52;91678.72;;;22.04;50.41
10958;BME280;5531;42.570;23.676;2022-09-16T03:33:31;91677.09;;;22.03;50.86
10958;BME280;5531;42.570;23.676;2022-09-16T03:36:07;91674.81;;;21.81;51.57
10958;BME280;5531;42.570;23.676;2022-09-16T03:38:40;91683.88;;;21.90;52.25
10958;BME280;5531;42.570;23.676;2022-09-16T03:41:10;91671.03;;;21.92;51.49
10958;BME280;5531;42.570;23.676;2022-09-16T03:43:55;91701.81;;;21.59;53.03
10958;BME280;5531;42.570;23.676;2022-09-16T03:46:26;91703.16;;;21.62;52.95
10958;BME280;5531;42.570;23.676;2022-09-16T03:48:55;91710.84;;;21.73;52.22
10958;BME280;5531;42.570;23.676;2022-09-16T03:51:26;91700.44;;;21.72;53.23
10958;BME280;5531;42.570;23.676;2022-09-16T03:53:55;91716.25;;;21.58;53.33
10958;BME280;5531;42.570;23.676;2022-09-16T03:56:24;91696.75;;;21.68;53.00
10958;BME280;5531;42.570;23.676;2022-09-16T03:58:54;91670.38;;;21.61;53.31
10958;BME280;5531;42.570;23.676;2022-09-16T04:01:22;91693.31;;;21.52;53.35
10958;BME280;5531;42.570;23.676;2022-09-16T04:03:52;91687.97;;;21.57;53.59
10958;BME280;5531;42.570;23.676;2022-09-16T04:06:21;91695.44;;;21.60;53.43
10958;BME280;5531;42.570;23.676;2022-09-16T04:08:52;91686.38;;;21.56;54.28
10958;BME280;5531;42.570;23.676;2022-09-16T04:11:23;91699.19;;;21.38;54.93
10958;BME280;5531;42.570;23.676;2022-09-16T04:13:54;91685.31;;;21.36;55.39
10958;BME280;5531;42.570;23.676;2022-09-16T04:16:23;91674.41;;;21.43;54.38
10958;BME280;5531;42.570;23.676;2022-09-16T04:18:53;91658.16;;;21.34;54.50
10958;BME280;5531;42.570;23.676;2022-09-16T04:21:22;91665.34;;;21.39;54.10
10958;BME280;5531;42.570;23.676;2022-09-16T04:23:54;91661.34;;;21.41;53.47
10958;BME280;5531;42.570;23.676;2022-09-16T04:26:23;91674.66;;;21.47;54.14
10958;BME280;5531;42.570;23.676;2022-09-16T04:28:52;91685.84;;;21.54;53.42
10958;BME280;5531;42.570;23.676;2022-09-16T04:31:22;91690.63;;;21.57;53.38
10958;BME280;5531;42.570;23.676;2022-09-16T04:33:51;91701.56;;;21.60;53.09
10958;BME280;5531;42.570;23.676;2022-09-16T04:36:20;91693.81;;;21.64;52.99
10958;BME280;5531;42.570;23.676;2022-09-16T04:38:49;91705.28;;;21.65;53.45
10958;BME280;5531;42.570;23.676;2022-09-16T04:41:22;91698.88;;;21.66;53.80
10958;BME280;5531;42.570;23.676;2022-09-16T04:43:53;91712.19;;;21.66;53.31
10958;BME280;5531;42.570;23.676;2022-09-16T04:46:23;91701.56;;;21.60;53.49
10958;BME280;5531;42.570;23.676;2022-09-16T04:48:53;91712.47;;;21.64;53.45
10958;BME280;5531;42.570;23.676;2022-09-16T04:51:24;91705.31;;;21.59;53.55
10958;BME280;5531;42.570;23.676;2022-09-16T04:53:53;91713.56;;;21.58;54.87
10958;BME280;5531;42.570;23.676;2022-09-16T04:56:27;91700.78;;;21.55;54.57
10958;BME280;5531;42.570;23.676;2022-09-16T04:58:59;91706.66;;;21.52;55.44
10958;BME280;5531;42.570;23.676;2022-09-16T05:01:30;91691.19;;;21.49;55.76
10958;BME280;5531;42.570;23.676;2022-09-16T05:04:00;91706.38;;;21.43;55.79
10958;BME280;5531;42.570;23.676;2022-09-16T05:06:31;91713.31;;;21.39;56.50
10958;BME280;5531;42.570;23.676;2022-09-16T05:09:01;91713.59;;;21.48;57.05
10958;BME280;5531;42.570;23.676;2022-09-16T05:11:35;91722.09;;;21.60;56.20
10958;BME280;5531;42.570;23.676;2022-09-16T05:14:06;91710.91;;;21.58;55.79
10958;BME280;5531;42.570;23.676;2022-09-16T05:16:35;91706.13;;;21.55;56.06
10958;BME280;5531;42.570;23.676;2022-09-16T05:19:04;91708.50;;;21.56;56.29
10958;BME280;5531;42.570;23.676;2022-09-16T05:21:36;91703.44;;;21.55;56.20
10958;BME280;5531;42.570;23.676;2022-09-16T05:24:07;91698.91;;;21.55;56.70
10958;BME280;5531;42.570;23.676;2022-09-16T05:26:40;91696.25;;;21.55;56.58
10958;BME280;5531;42.570;23.676;2022-09-16T05:29:12;91695.69;;;21.58;57.34
10958;BME280;5531;42.570;23.676;2022-09-16T05:31:43;91694.34;;;21.66;57.04
10958;BME280;5531;42.570;23.676;2022-09-16T05:34:14;91702.56;;;21.75;55.59
10958;BME280;5531;42.570;23.676;2022-09-16T05:36:44;91696.22;;;21.71;55.47
10958;BME280;5531;42.570;23.676;2022-09-16T05:39:15;91689.47;;;21.84;55.96
10958;BME280;5531;42.570;23.676;2022-09-16T05:41:47;91679.56;;;21.94;54.40
10958;BME280;5531;42.570;23.676;2022-09-16T05:44:16;91688.09;;;21.91;55.14
10958;BME280;5531;42.570;23.676;2022-09-16T05:46:45;91687.22;;;22.06;55.40
10958;BME280;5531;42.570;23.676;2022-09-16T05:49:14;91674.97;;;22.05;56.30
10958;BME280;5531;42.570;23.676;2022-09-16T05:51:46;91690.94;;;22.15;54.84
10958;BME280;5531;42.570;23.676;2022-09-16T05:54:15;91694.06;;;22.33;53.13
10958;BME280;5531;42.570;23.676;2022-09-16T05:56:48;91685.69;;;22.50;52.57
10958;BME280;5531;42.570;23.676;2022-09-16T05:59:17;91682.94;;;22.60;52.29
10958;BME280;5531;42.570;23.676;2022-09-16T06:01:48;91672.47;;;22.69;52.35
10958;BME280;5531;42.570;23.676;2022-09-16T06:04:17;91675.31;;;22.78;52.46
10958;BME280;5531;42.570;23.676;2022-09-16T06:06:46;91680.34;;;22.84;52.67
10958;BME280;5531;42.570;23.676;2022-09-16T06:09:17;91686.69;;;22.94;52.63
10958;BME280;5531;42.570;23.676;2022-09-16T06:11:51;91661.25;;;23.01;52.44
10958;BME280;5531;42.570;23.676;2022-09-16T06:14:21;91666.31;;;23.03;51.41
10958;BME280;5531;42.570;23.676;2022-09-16T06:16:50;91665.13;;;23.19;52.53
10958;BME280;5531;42.570;23.676;2022-09-16T06:19:19;91666.06;;;23.29;51.25
10958;BME280;5531;42.570;23.676;2022-09-16T06:21:48;91670.13;;;23.26;51.87
10958;BME280;5531;42.570;23.676;2022-09-16T06:24:18;91664.34;;;23.43;50.30
10958;BME280;5531;42.570;23.676;2022-09-16T06:26:50;91681.28;;;23.57;49.99
10958;BME280;5531;42.570;23.676;2022-09-16T06:29:20;91688.53;;;23.57;50.74
10958;BME280;5531;42.570;23.676;2022-09-16T06:31:49;91670.38;;;23.54;50.40
10958;BME280;5531;42.570;23.676;2022-09-16T06:34:18;91686.38;;;23.59;50.25
10958;BME280;5531;42.570;23.676;2022-09-16T06:36:47;91675.66;;;23.59;51.51
10958;BME280;5531;42.570;23.676;2022-09-16T06:39:16;91679.38;;;23.63;49.99
10958;BME280;5531;42.570;23.676;2022-09-16T06:41:45;91686.38;;;23.59;50.58
10958;BME280;5531;42.570;23.676;2022-09-16T06:44:16;91668.16;;;23.61;50.15
10958;BME280;5531;42.570;23.676;2022-09-16T06:46:46;91677.66;;;23.72;49.71
10958;BME280;5531;42.570;23.676;2022-09-16T06:49:15;91674.63;;;23.79;50.49
10958;BME280;5531;42.570;23.676;2022-09-16T06:51:44;91672.72;;;23.85;50.22
10958;BME280;5531;42.570;23.676;2022-09-16T06:54:13;91670.28;;;23.88;48.99
10958;BME280;5531;42.570;23.676;2022-09-16T06:56:42;91675.06;;;23.91;49.45
10958;BME280;5531;42.570;23.676;2022-09-16T06:59:11;91684.56;;;24.03;49.51
10958;BME280;5531;42.570;23.676;2022-09-16T07:01:43;91673.72;;;24.13;49.43
10958;BME280;5531;42.570;23.676;2022-09-16T07:04:12;91684.13;;;24.14;50.24
10958;BME280;5531;42.570;23.676;2022-09-16T07:06:41;91692.66;;;24.16;50.61
10958;BME280;5531;42.570;23.676;2022-09-16T07:09:11;91696.16;;;24.17;48.98
10958;BME280;5531;42.570;23.676;2022-09-16T07:11:40;91691.59;;;24.18;50.56
10958;BME280;5531;42.570;23.676;2022-09-16T07:14:09;91697.72;;;24.18;50.53
10958;BME280;5531;42.570;23.676;2022-09-16T07:16:38;91705.97;;;24.22;50.39
10958;BME280;5531;42.570;23.676;2022-09-16T07:19:10;91695.72;;;24.29;51.09
10958;BME280;5531;42.570;23.676;2022-09-16T07:21:39;91691.63;;;24.37;51.30
10958;BME280;5531;42.570;23.676;2022-09-16T07:24:08;91692.59;;;24.41;50.54
10958;BME280;5531;42.570;23.676;2022-09-16T07:26:40;91699.28;;;24.43;50.15
10958;BME280;5531;42.570;23.676;2022-09-16T07:29:11;91702.31;;;24.37;49.91
10958;BME280;5531;42.570;23.676;2022-09-16T07:31:40;91686.75;;;24.39;50.14
10958;BME280;5531;42.570;23.676;2022-09-16T07:34:13;91684.75;;;24.49;49.68
10958;BME280;5531;42.570;23.676;2022-09-16T07:36:43;91683.22;;;24.62;49.53
10958;BME280;5531;42.570;23.676;2022-09-16T07:39:14;91681.28;;;24.68;49.52
10958;BME280;5531;42.570;23.676;2022-09-16T07:41:45;91678.50;;;24.73;48.50
10958;BME280;5531;42.570;23.676;2022-09-16T07:44:16;91682.22;;;24.77;49.68
10958;BME280;5531;42.570;23.676;2022-09-16T07:46:45;91677.56;;;24.83;48.14
10958;BME280;5531;42.570;23.676;2022-09-16T07:49:18;91687.31;;;24.93;48.03
10958;BME280;5531;42.570;23.676;2022-09-16T07:51:47;91659.94;;;24.96;47.75
10958;BME280;5531;42.570;23.676;2022-09-16T07:54:17;91658.84;;;24.97;47.54
10958;BME280;5531;42.570;23.676;2022-09-16T07:56:47;91654.19;;;25.02;46.95
10958;BME280;5531;42.570;23.676;2022-09-16T07:59:18;91659.66;;;25.11;48.20
10958;BME280;5531;42.570;23.676;2022-09-16T08:01:48;91663.06;;;25.17;46.73
10958;BME280;5531;42.570;23.676;2022-09-16T08:04:20;91662.97;;;25.22;46.82
10958;BME280;5531;42.570;23.676;2022-09-16T08:06:49;91662.63;;;25.29;47.46
10958;BME280;5531;42.570;23.676;2022-09-16T08:09:18;91657.69;;;25.36;48.37
10958;BME280;5531;42.570;23.676;2022-09-16T08:11:47;91651.69;;;25.39;46.07
10958;BME280;5531;42.570;23.676;2022-09-16T08:14:16;91660.47;;;25.45;46.67
10958;BME280;5531;42.570;23.676;2022-09-16T08:16:45;91650.03;;;25.57;47.13
10958;BME280;5531;42.570;23.676;2022-09-16T08:19:18;91649.03;;;25.80;46.02
10958;BME280;5531;42.570;23.676;2022-09-16T08:21:48;91638.69;;;25.88;46.42
10958;BME280;5531;42.570;23.676;2022-09-16T08:24:17;91642.88;;;25.94;45.48
10958;BME280;5531;42.570;23.676;2022-09-16T08:26:46;91647.34;;;25.85;46.08
10958;BME280;5531;42.570;23.676;2022-09-16T08:29:15;91633.31;;;25.88;45.66
10958;BME280;5531;42.570;23.676;2022-09-16T08:31:44;91636.94;;;26.11;45.57
10958;BME280;5531;42.570;23.676;2022-09-16T08:34:13;91626.56;;;26.18;44.97
10958;BME280;5531;42.570;23.676;2022-09-16T08:36:44;91638.56;;;26.34;45.22
10958;BME280;5531;42.570;23.676;2022-09-16T08:39:13;91632.84;;;26.50;45.30
10958;BME280;5531;42.570;23.676;2022-09-16T08:44:43;91622.81;;;26.78;44.48
10958;BME280;5531;42.570;23.676;2022-09-16T08:47:24;91622.56;;;26.88;44.54
10958;BME280;5531;42.570;23.676;2022-09-16T08:49:57;91622.78;;;27.01;43.05
10958;BME280;5531;42.570;23.676;2022-09-16T08:52:32;91621.25;;;27.08;44.17
10958;BME280;5531;42.570;23.676;2022-09-16T08:55:05;91625.94;;;27.25;43.45
10958;BME280;5531;42.570;23.676;2022-09-16T08:57:39;91630.28;;;27.35;43.80
10958;BME280;5531;42.570;23.676;2022-09-16T09:00:13;91630.28;;;27.35;42.27
10958;BME280;5531;42.570;23.676;2022-09-16T09:02:49;91619.88;;;27.20;42.88
10958;BME280;5531;42.570;23.676;2022-09-16T09:05:27;91617.75;;;27.31;43.32
10958;BME280;5531;42.570;23.676;2022-09-16T09:08:09;91608.47;;;27.37;42.24
10958;BME280;5531;42.570;23.676;2022-09-16T09:10:46;91606.72;;;27.41;43.29
10958;BME280;5531;42.570;23.676;2022-09-16T09:13:47;91610.84;;;27.38;42.67
10958;BME280;5531;42.570;23.676;2022-09-16T09:16:30;91611.97;;;27.46;42.21
10958;BME280;5531;42.570;23.676;2022-09-16T09:19:20;91611.97;;;27.46;42.33
10958;BME280;5531;42.570;23.676;2022-09-16T09:21:58;91618.16;;;27.47;42.72
10958;BME280;5531;42.570;23.676;2022-09-16T09:24:50;91625.44;;;27.46;43.02
10958;BME280;5531;42.570;23.676;2022-09-16T09:27:25;91626.38;;;27.41;42.29
10958;BME280;5531;42.570;23.676;2022-09-16T09:30:04;91634.91;;;27.43;42.64
10958;BME280;5531;42.570;23.676;2022-09-16T09:32:49;91631.25;;;27.39;42.59
10958;BME280;5531;42.570;23.676;2022-09-16T09:35:31;91620.16;;;27.41;43.66
10958;BME280;5531;42.570;23.676;2022-09-16T09:41:13;91628.69;;;27.34;43.64
10958;BME280;5531;42.570;23.676;2022-09-16T09:43:46;91617.25;;;27.60;43.94
10958;BME280;5531;42.570;23.676;2022-09-16T09:46:22;91627.41;;;27.72;43.38
10958;BME280;5531;42.570;23.676;2022-09-16T09:48:56;91622.19;;;27.67;42.40
10958;BME280;5531;42.570;23.676;2022-09-16T09:51:30;91622.09;;;27.49;43.10
10958;BME280;5531;42.570;23.676;2022-09-16T09:54:04;91621.91;;;27.37;44.40
10958;BME280;5531;42.570;23.676;2022-09-16T09:56:40;91631.00;;;27.27;44.31
10958;BME280;5531;42.570;23.676;2022-09-16T09:59:20;91626.72;;;27.26;45.07
10958;BME280;5531;42.570;23.676;2022-09-16T10:01:53;91624.91;;;27.13;44.77
10958;BME280;5531;42.570;23.676;2022-09-16T10:04:23;91626.63;;;27.08;45.88
10958;BME280;5531;42.570;23.676;2022-09-16T10:06:53;91625.97;;;27.03;45.66
10958;BME280;5531;42.570;23.676;2022-09-16T10:09:23;91631.78;;;26.96;46.10
10958;BME280;5531;42.570;23.676;2022-09-16T10:11:55;91625.66;;;26.82;44.97
10958;BME280;5531;42.570;23.676;2022-09-16T10:14:29;91638.38;;;26.67;44.96
10958;BME280;5531;42.570;23.676;2022-09-16T10:17:00;91631.00;;;26.59;45.56
10958;BME280;5531;42.570;23.676;2022-09-16T10:19:31;91639.38;;;26.58;44.73
10958;BME280;5531;42.570;23.676;2022-09-16T10:22:10;91643.03;;;26.39;45.68
10958;BME280;5531;42.570;23.676;2022-09-16T10:24:40;91645.13;;;26.28;46.04
10958;BME280;5531;42.570;23.676;2022-09-16T10:27:23;91652.03;;;26.21;45.96
10958;BME280;5531;42.570;23.676;2022-09-16T10:30:05;91655.31;;;26.18;46.21
10958;BME280;5531;42.570;23.676;2022-09-16T10:32:44;91659.38;;;26.15;47.08
10958;BME280;5531;42.570;23.676;2022-09-16T10:35:18;91667.13;;;26.16;46.54
10958;BME280;5531;42.570;23.676;2022-09-16T10:37:51;91674.22;;;26.12;47.47
10958;BME280;5531;42.570;23.676;2022-09-16T10:40:23;91687.66;;;26.12;47.40
10958;BME280;5531;42.570;23.676;2022-09-16T10:42:58;91701.06;;;26.12;47.29
10958;BME280;5531;42.570;23.676;2022-09-16T10:45:30;91714.28;;;26.09;46.53
10958;BME280;5531;42.570;23.676;2022-09-16T10:48:05;91723.31;;;25.99;46.17
10958;BME280;5531;42.570;23.676;2022-09-16T10:50:35;91736.53;;;25.82;46.24
10958;BME280;5531;42.570;23.676;2022-09-16T10:53:21;91737.22;;;25.40;47.21
10958;BME280;5531;42.570;23.676;2022-09-16T10:56:02;91734.78;;;25.25;47.50
10958;BME280;5531;42.570;23.676;2022-09-16T10:58:34;91755.78;;;24.66;52.14
10958;BME280;5531;42.570;23.676;2022-09-16T11:01:15;91752.94;;;24.14;54.48
10958;BME280;5531;42.570;23.676;2022-09-16T11:04:04;91777.09;;;23.79;56.89
10958;BME280;5531;42.570;23.676;2022-09-16T11:06:46;91806.09;;;23.38;58.35
10958;BME280;5531;42.570;23.676;2022-09-16T11:09:25;91787.34;;;23.09;59.55
10958;BME280;5531;42.570;23.676;2022-09-16T11:12:26;91759.81;;;23.08;61.27
10958;BME280;5531;42.570;23.676;2022-09-16T11:15:08;91752.97;;;22.92;64.20
10958;BME280;5531;42.570;23.676;2022-09-16T11:17:50;91785.19;;;22.66;67.45
10958;BME280;5531;42.570;23.676;2022-09-16T11:23:34;91780.28;;;22.28;67.90
10958;BME280;5531;42.570;23.676;2022-09-16T11:26:10;91752.25;;;22.31;69.01
10958;BME280;5531;42.570;23.676;2022-09-16T11:28:52;91745.50;;;22.44;66.50
10958;BME280;5531;42.570;23.676;2022-09-16T11:31:38;91736.06;;;22.62;63.35
10958;BME280;5531;42.570;23.676;2022-09-16T11:34:15;91726.41;;;22.71;62.88
10958;BME280;5531;42.570;23.676;2022-09-16T11:36:59;91711.88;;;22.82;61.20
10958;BME280;5531;42.570;23.676;2022-09-16T11:39:57;91701.06;;;23.03;60.06
10958;BME280;5531;42.570;23.676;2022-09-16T11:42:33;91686.44;;;23.24;57.06
10958;BME280;5531;42.570;23.676;2022-09-16T11:45:16;91681.91;;;23.49;56.67
10958;BME280;5531;42.570;23.676;2022-09-16T11:48:03;91681.38;;;23.76;55.78
10958;BME280;5531;42.570;23.676;2022-09-16T11:50:47;91668.84;;;23.96;53.60
10958;BME280;5531;42.570;23.676;2022-09-16T11:53:37;91648.31;;;23.91;54.67
10958;BME280;5531;42.570;23.676;2022-09-16T11:56:12;91633.94;;;23.82;53.29
10958;BME280;5531;42.570;23.676;2022-09-16T11:58:45;91639.91;;;23.98;52.21
10958;BME280;5531;42.570;23.676;2022-09-16T12:01:25;91634.69;;;24.07;50.85
10958;BME280;5531;42.570;23.676;2022-09-16T12:04:01;91629.00;;;24.13;49.17
10958;BME280;5531;42.570;23.676;2022-09-16T12:06:45;91630.59;;;24.33;49.83
10958;BME280;5531;42.570;23.676;2022-09-16T12:09:19;91627.34;;;24.56;49.14
10958;BME280;5531;42.570;23.676;2022-09-16T12:11:55;91625.03;;;24.82;50.00
10958;BME280;5531;42.570;23.676;2022-09-16T12:14:30;91625.50;;;25.03;48.17
10958;BME280;5531;42.570;23.676;2022-09-16T12:17:05;91627.03;;;25.23;47.53
10958;BME280;5531;42.570;23.676;2022-09-16T12:19:43;91615.56;;;25.50;47.87
10958;BME280;5531;42.570;23.676;2022-09-16T12:22:18;91630.44;;;25.84;46.16
10958;BME280;5531;42.570;23.676;2022-09-16T12:24:55;91616.94;;;26.03;45.37
10958;BME280;5531;42.570;23.676;2022-09-16T12:27:47;91623.47;;;26.25;45.73
10958;BME280;5531;42.570;23.676;2022-09-16T12:30:19;91625.47;;;26.42;44.98
10958;BME280;5531;42.570;23.676;2022-09-16T12:32:56;91632.28;;;26.39;45.29
10958;BME280;5531;42.570;23.676;2022-09-16T12:35:32;91627.50;;;26.00;46.61
10958;BME280;5531;42.570;23.676;2022-09-16T12:38:02;91632.84;;;25.86;47.85
10958;BME280;5531;42.570;23.676;2022-09-16T12:40:37;91636.72;;;25.66;48.01
10958;BME280;5531;42.570;23.676;2022-09-16T12:43:32;91648.63;;;25.32;53.02
10958;BME280;5531;42.570;23.676;2022-09-16T12:46:25;91642.34;;;24.89;55.67
10958;BME280;5531;42.570;23.676;2022-09-16T12:49:19;91646.00;;;24.61;56.55
10958;BME280;5531;42.570;23.676;2022-09-16T12:52:17;91647.16;;;24.36;56.73
10958;BME280;5531;42.570;23.676;2022-09-16T12:58:16;91660.91;;;24.10;57.84
10958;BME280;5531;42.570;23.676;2022-09-16T13:00:57;91658.66;;;23.98;56.64
10958;BME280;5531;42.570;23.676;2022-09-16T13:03:30;91664.75;;;23.79;58.41
10958;BME280;5531;42.570;23.676;2022-09-16T13:06:03;91657.97;;;23.63;59.06
10958;BME280;5531;42.570;23.676;2022-09-16T13:08:36;91697.81;;;23.35;60.58
10958;BME280;5531;42.570;23.676;2022-09-16T13:11:13;91693.50;;;23.39;59.83
10958;BME280;5531;42.570;23.676;2022-09-16T13:13:47;91691.63;;;23.40;59.45
10958;BME280;5531;42.570;23.676;2022-09-16T13:16:30;91697.66;;;23.27;59.82
10958;BME280;5531;42.570;23.676;2022-09-16T13:19:22;91703.28;;;23.25;60.10
10958;BME280;5531;42.570;23.676;2022-09-16T13:21:56;91718.03;;;23.17;60.80
10958;BME280;5531;42.570;23.676;2022-09-16T13:24:35;91720.25;;;23.10;61.22
10958;BME280;5531;42.570;23.676;2022-09-16T13:27:24;91714.84;;;23.15;64.34
10958;BME280;5531;42.570;23.676;2022-09-16T13:30:15;91715.00;;;22.95;66.82
10958;BME280;5531;42.570;23.676;2022-09-16T13:32:56;91742.03;;;22.48;73.19
10958;BME280;5531;42.570;23.676;2022-09-16T13:35:40;91737.69;;;22.58;72.62
10958;BME280;5531;42.570;23.676;2022-09-16T13:38:24;91745.78;;;22.47;73.54
10958;BME280;5531;42.570;23.676;2022-09-16T13:41:09;91744.72;;;22.43;74.41
10958;BME280;5531;42.570;23.676;2022-09-16T13:43:50;91700.00;;;22.20;74.94
10958;BME280;5531;42.570;23.676;2022-09-16T13:46:33;91702.22;;;21.97;75.31
10958;BME280;5531;42.570;23.676;2022-09-16T13:49:23;91701.78;;;21.74;78.13
10958;BME280;5531;42.570;23.676;2022-09-16T13:51:53;91697.03;;;21.56;79.23
10958;BME280;5531;42.570;23.676;2022-09-16T13:54:27;91694.66;;;21.49;79.80
10958;BME280;5531;42.570;23.676;2022-09-16T13:57:27;91681.31;;;21.54;80.59